Time;durP1;ratioP1;P1;durP2;ratioP2;P2;SDS_P1;SDS_P2;PMS_P1;PMS_P2;Temp;Humidity;BMP_temperature;BMP_pressure;BME280_temperature;BME280_humidity;BME280_pressure;Samples;Min_cycle;Max_cycle;Signal;HPM_P1;HPM_P2
2023/05/18 00:01:15;;;;;;;11.00;4.55;;;;;;;13.70;60.31;101368.06;5025461;28;20136;-50
2023/05/18 00:03:42;;;;;;;8.02;3.95;;;;;;;13.67;60.16;101370.63;5026714;28;20099;-54
2023/05/18 00:06:09;;;;;;;9.82;4.65;;;;;;;13.65;60.19;101367.19;5027804;28;20460;-54
2023/05/18 00:08:37;;;;;;;8.20;3.35;;;;;;;13.64;59.47;101362.84;5022656;28;20121;-53
2023/05/18 00:11:05;;;;;;;9.10;3.70;;;;;;;13.62;59.35;101366.28;5022547;28;20091;-56
2023/05/18 00:13:32;;;;;;;12.00;4.85;;;;;;;13.60;59.59;101364.53;5016875;28;20128;-54
2023/05/18 00:15:59;;;;;;;11.45;4.28;;;;;;;13.58;60.27;101361.91;5023032;28;20517;-56
2023/05/18 00:18:26;;;;;;;10.63;4.38;;;;;;;13.55;59.26;101361.94;5025296;28;20038;-59
2023/05/18 00:21:01;;;;;;;11.52;4.78;;;;;;;13.53;60.48;101355.81;5023846;28;20489;-55
2023/05/18 00:23:29;;;;;;;9.98;5.05;;;;;;;13.50;60.55;101358.41;5021998;28;20056;-59
2023/05/18 00:25:58;;;;;;;10.27;4.40;;;;;;;13.45;60.76;101354.88;5018849;28;20045;-55
2023/05/18 00:28:25;;;;;;;8.48;4.57;;;;;;;13.39;61.33;101349.63;5025985;28;20049;-55
2023/05/18 00:30:53;;;;;;;10.35;4.88;;;;;;;13.36;60.87;101348.75;5054404;28;20049;-57
2023/05/18 00:33:20;;;;;;;9.95;5.47;;;;;;;13.35;61.18;101343.53;5020259;28;20045;-54
2023/05/18 00:35:47;;;;;;;12.52;5.20;;;;;;;13.36;60.49;101345.28;5022297;28;20081;-58
2023/05/18 00:38:14;;;;;;;15.18;5.43;;;;;;;13.33;60.86;101346.13;5020409;28;20057;-57
2023/05/18 00:40:41;;;;;;;12.50;5.15;;;;;;;13.33;61.49;101350.44;5023904;28;20085;-57
2023/05/18 00:43:08;;;;;;;11.20;4.30;;;;;;;13.32;61.78;101349.59;5021241;28;20528;-56
2023/05/18 00:45:35;;;;;;;10.32;4.70;;;;;;;13.29;60.94;101349.56;5021139;28;20042;-54
2023/05/18 00:48:02;;;;;;;8.55;4.30;;;;;;;13.24;61.97;101362.53;5016022;28;20061;-58
2023/05/18 00:50:29;;;;;;;10.48;4.20;;;;;;;13.17;61.93;101355.56;5019664;28;20128;-56
2023/05/18 00:52:56;;;;;;;11.48;4.65;;;;;;;13.13;61.62;101355.53;5022653;28;20069;-58
2023/05/18 00:55:22;;;;;;;8.93;4.28;;;;;;;13.07;62.40;101359.81;5018819;28;20045;-57
2023/05/18 00:57:50;;;;;;;11.25;5.30;;;;;;;13.03;62.11;101352.84;5020027;28;20509;-54
2023/05/18 01:00:19;;;;;;;10.65;4.78;;;;;;;13.00;62.31;101358.00;5022813;28;20132;-55
2023/05/18 01:02:46;;;;;;;10.95;5.15;;;;;;;12.98;62.58;101354.53;5019346;28;20398;-55
2023/05/18 01:05:13;;;;;;;11.77;5.32;;;;;;;12.97;61.90;101355.41;5024666;28;20049;-59
2023/05/18 01:07:42;;;;;;;12.85;5.13;;;;;;;12.96;61.97;101348.44;5016553;28;20046;-52
2023/05/18 01:10:11;;;;;;;12.98;5.53;;;;;;;12.96;62.22;101353.66;5024185;28;20056;-56
2023/05/18 01:15:21;;;;;;;11.20;4.60;;;;;;;12.91;61.96;101337.16;5070235;27;20786;-49
2023/05/18 01:20:59;;;;;;;13.90;5.60;;;;;;;12.78;63.33;101337.06;5042181;28;20388;-52
2023/05/18 01:26:28;;;;;;;12.82;6.32;;;;;;;12.61;63.29;101352.47;5061960;27;20386;-52
2023/05/18 01:28:58;;;;;;;11.38;6.18;;;;;;;12.59;63.77;101342.06;5020269;28;20050;-54
2023/05/18 01:31:26;;;;;;;14.75;6.25;;;;;;;12.60;63.63;101348.16;5035706;28;20562;-47
2023/05/18 01:33:53;;;;;;;11.50;5.28;;;;;;;12.58;63.26;101355.94;5041525;28;20092;-53
2023/05/18 01:36:20;;;;;;;14.18;5.57;;;;;;;12.55;62.74;101350.69;5042016;28;20194;-55
2023/05/18 01:38:47;;;;;;;9.82;5.05;;;;;;;12.53;63.53;101344.59;5040496;28;20052;-52
2023/05/18 01:52:01;;;;;;;21.70;8.00;;;;;;;12.50;64.17;101336.75;5048999;28;20416;-52
2023/05/18 01:54:30;;;;;;;20.80;8.18;;;;;;;12.50;64.38;101341.97;5024986;28;20056;-52
2023/05/18 01:56:58;;;;;;;19.70;7.65;;;;;;;12.49;63.90;101340.22;5030157;28;20057;-52
2023/05/18 01:59:25;;;;;;;23.85;8.48;;;;;;;12.48;64.63;101338.50;5029315;28;20062;-48
2023/05/18 02:01:51;;;;;;;23.08;8.02;;;;;;;12.49;64.79;101340.22;5028892;28;20046;-53
2023/05/18 02:04:26;;;;;;;22.50;7.53;;;;;;;12.50;64.72;101341.97;5027521;28;20049;-52
2023/05/18 02:06:54;;;;;;;17.02;6.72;;;;;;;12.49;64.77;101348.03;5022538;28;20524;-55
2023/05/18 02:09:21;;;;;;;15.73;6.38;;;;;;;12.50;64.85;101341.97;5020251;28;20042;-52
2023/05/18 02:11:48;;;;;;;19.83;6.72;;;;;;;12.51;65.19;101343.72;5019429;28;20050;-52
2023/05/18 02:14:15;;;;;;;16.67;7.07;;;;;;;12.49;64.84;101345.44;5018735;28;20129;-53
2023/05/18 02:16:46;;;;;;;18.38;7.45;;;;;;;12.48;64.69;101343.69;5052136;28;20067;-54
2023/05/18 02:19:13;;;;;;;16.05;5.95;;;;;;;12.48;65.06;101341.09;5047496;28;20045;-52
2023/05/18 02:21:42;;;;;;;17.15;6.05;;;;;;;12.47;64.37;101341.97;5024625;28;20457;-57
2023/05/18 02:24:09;;;;;;;15.68;6.93;;;;;;;12.44;64.33;101342.81;5048805;28;20559;-56
2023/05/18 02:26:36;;;;;;;18.88;7.07;;;;;;;12.44;64.60;101342.81;5044831;28;20056;-55
2023/05/18 02:29:07;;;;;;;20.33;6.80;;;;;;;12.44;65.29;101337.59;5043604;28;20105;-55
2023/05/18 02:31:34;;;;;;;18.13;6.82;;;;;;;12.43;65.47;101350.56;5043875;28;20040;-53
2023/05/18 02:34:01;;;;;;;15.90;7.40;;;;;;;12.41;64.37;101349.69;5048723;28;20501;-52
2023/05/18 02:36:35;;;;;;;15.65;6.90;;;;;;;12.38;65.26;101352.22;5045701;28;20041;-49
2023/05/18 02:39:03;;;;;;;19.17;7.00;;;;;;;12.34;64.51;101347.00;5039209;28;20065;-53
2023/05/18 02:41:30;;;;;;;15.30;6.45;;;;;;;12.32;64.63;101346.13;5039648;28;20045;-55
2023/05/18 02:43:57;;;;;;;19.55;6.75;;;;;;;12.31;64.63;101346.09;5039852;28;20048;-53
2023/05/18 02:46:24;;;;;;;16.23;7.05;;;;;;;12.28;65.65;101354.75;5040016;28;20136;-55
2023/05/18 02:48:51;;;;;;;16.05;6.57;;;;;;;12.25;65.75;101349.50;5037733;28;20045;-53
2023/05/18 02:51:18;;;;;;;17.98;6.45;;;;;;;12.21;64.75;101350.31;5039248;28;20052;-56
2023/05/18 02:53:44;;;;;;;14.50;6.65;;;;;;;12.19;65.71;101352.03;5038202;28;20048;-52
2023/05/18 02:56:11;;;;;;;18.88;6.47;;;;;;;12.16;65.58;101352.00;5035818;28;20485;-52
2023/05/18 02:58:38;;;;;;;17.13;6.28;;;;;;;12.12;65.18;101345.03;5043988;28;20374;-50
2023/05/18 03:01:08;;;;;;;17.77;6.55;;;;;;;12.06;65.37;101346.69;5021466;28;20072;-53
2023/05/18 03:03:35;;;;;;;16.67;5.93;;;;;;;12.00;66.15;101341.41;5024787;28;20045;-50
2023/05/18 03:06:02;;;;;;;19.50;6.50;;;;;;;11.96;65.13;101344.81;5029258;28;20049;-56
2023/05/18 03:08:30;;;;;;;14.98;6.50;;;;;;;11.91;65.71;101344.75;5026560;28;20129;-53
2023/05/18 03:10:57;;;;;;;16.23;6.10;;;;;;;11.88;65.83;101343.81;5021470;28;20045;-54
2023/05/18 03:13:24;;;;;;;16.45;6.47;;;;;;;11.85;66.28;101346.41;5025977;28;20053;-56
2023/05/18 03:15:51;;;;;;;14.23;6.75;;;;;;;11.81;66.31;101351.56;5023282;28;20053;-53
2023/05/18 03:18:18;;;;;;;18.20;6.88;;;;;;;11.81;65.67;101346.38;5021208;28;20057;-55
2023/05/18 03:20:45;;;;;;;18.58;7.13;;;;;;;11.81;65.13;101343.78;5024861;28;20045;-53
2023/05/18 03:23:11;;;;;;;20.33;7.00;;;;;;;11.81;65.67;101346.38;5025572;28;20977;-54
2023/05/18 03:25:38;;;;;;;18.15;7.85;;;;;;;11.81;66.08;101356.75;5018953;28;20092;-51
2023/05/18 03:28:05;;;;;;;15.18;6.82;;;;;;;11.81;66.00;101351.56;5023305;28;20045;-55
2023/05/18 03:30:32;;;;;;;19.42;7.32;;;;;;;11.81;66.38;101345.47;5024530;28;20489;-52
2023/05/18 03:33:00;;;;;;;17.52;8.20;;;;;;;11.82;66.74;101347.22;5023750;28;20044;-57
2023/05/18 03:35:28;;;;;;;22.20;7.20;;;;;;;11.80;66.15;101339.44;5029052;28;20909;-51
2023/05/18 03:37:55;;;;;;;17.38;7.18;;;;;;;11.80;65.74;101336.84;5023807;28;20060;-50
2023/05/18 03:40:23;;;;;;;19.25;7.32;;;;;;;11.80;65.63;101344.63;5022124;28;20045;-53
2023/05/18 03:42:50;;;;;;;19.05;6.95;;;;;;;11.79;65.68;101348.06;5023785;28;20057;-55
2023/05/18 03:45:17;;;;;;;23.08;7.88;;;;;;;11.76;65.70;101336.78;5020475;28;20042;-53
2023/05/18 03:47:44;;;;;;;16.55;6.93;;;;;;;11.75;65.56;101348.03;5005542;28;20501;-56
2023/05/18 03:50:10;;;;;;;21.50;8.32;;;;;;;11.74;65.61;101339.34;5021790;28;20443;-55
2023/05/18 03:52:38;;;;;;;16.25;6.40;;;;;;;11.72;66.82;101341.03;5027005;28;20324;-55
2023/05/18 03:55:05;;;;;;;19.52;7.15;;;;;;;11.70;65.87;101348.81;5017325;28;20042;-54
2023/05/18 03:57:32;;;;;;;20.30;7.45;;;;;;;11.68;65.84;101347.03;5022150;28;20606;-56
2023/05/18 03:59:59;;;;;;;21.60;8.35;;;;;;;11.66;65.62;101348.75;5019036;28;20080;-52
2023/05/18 04:02:26;;;;;;;22.17;7.57;;;;;;;11.64;66.70;101343.53;5019981;28;20059;-51
2023/05/18 04:04:53;;;;;;;17.90;6.97;;;;;;;11.63;66.75;101346.13;5028944;28;20049;-48
2023/05/18 04:07:22;;;;;;;20.20;7.43;;;;;;;11.63;66.88;101356.50;5022433;28;20464;-53
2023/05/18 04:09:51;;;;;;;23.48;7.82;;;;;;;11.62;66.21;101353.00;5025464;28;20069;-52
2023/05/18 04:12:17;;;;;;;18.50;7.38;;;;;;;11.62;66.47;101359.94;5025008;28;20053;-53
2023/05/18 04:14:48;;;;;;;19.45;7.57;;;;;;;11.62;66.58;101362.53;5025129;28;20041;-54
2023/05/18 04:17:16;;;;;;;20.38;7.20;;;;;;;11.61;67.05;101358.19;5020710;28;20057;-55
2023/05/18 04:19:43;;;;;;;20.42;6.63;;;;;;;11.60;66.48;101356.44;5025076;28;20045;-49
2023/05/18 04:22:10;;;;;;;19.90;7.60;;;;;;;11.59;66.94;101362.50;5025915;28;20355;-52
2023/05/18 04:24:37;;;;;;;19.67;7.38;;;;;;;11.57;66.41;101358.16;5025575;28;20057;-54
2023/05/18 04:27:03;;;;;;;16.25;6.43;;;;;;;11.56;66.31;101364.19;5023950;28;20056;-55
2023/05/18 04:29:30;;;;;;;22.40;7.93;;;;;;;11.55;66.23;101365.03;5027446;28;20045;-54
2023/05/18 04:31:59;;;;;;;18.20;7.18;;;;;;;11.56;67.33;101360.72;5026041;28;20553;-55
2023/05/18 04:34:27;;;;;;;19.23;7.57;;;;;;;11.55;66.03;101362.44;5028422;28;20041;-53
2023/05/18 04:36:55;;;;;;;19.55;7.07;;;;;;;11.56;66.96;101363.31;5031319;28;20541;-55
2023/05/18 04:39:22;;;;;;;19.65;7.63;;;;;;;11.59;66.90;101365.09;5030947;28;20049;-53
2023/05/18 04:41:49;;;;;;;22.45;7.95;;;;;;;11.60;66.20;101362.53;5029611;28;20430;-52
2023/05/18 04:44:17;;;;;;;18.75;7.00;;;;;;;11.61;66.90;101368.56;5026186;28;20752;-49
2023/05/18 04:46:46;;;;;;;22.38;7.53;;;;;;;11.63;66.50;101369.47;5025754;28;20041;-49
2023/05/18 04:49:13;;;;;;;22.27;7.63;;;;;;;11.64;66.35;101366.91;5006503;28;20744;-55
2023/05/18 04:51:40;;;;;;;21.38;7.93;;;;;;;11.66;66.27;101369.53;5023547;28;20132;-49
2023/05/18 04:54:08;;;;;;;20.15;7.00;;;;;;;11.69;66.00;101372.16;5023733;28;20180;-53
2023/05/18 04:56:35;;;;;;;26.08;7.43;;;;;;;11.70;66.48;101368.72;5029240;28;20053;-55
2023/05/18 04:59:03;;;;;;;20.80;7.72;;;;;;;11.72;66.67;101372.19;5024738;28;20489;-51
2023/05/18 05:01:29;;;;;;;20.75;8.55;;;;;;;11.74;67.08;101373.09;5021024;28;20095;-46
2023/05/18 05:03:57;;;;;;;20.08;7.88;;;;;;;11.77;66.27;101375.72;5019219;28;20509;-51
2023/05/18 05:06:25;;;;;;;26.70;8.65;;;;;;;11.80;67.69;101369.69;5022617;28;20053;-48
2023/05/18 05:08:52;;;;;;;24.02;7.90;;;;;;;11.82;66.80;101371.47;5018180;28;20056;-52
2023/05/18 05:11:20;;;;;;;23.55;8.15;;;;;;;11.85;66.78;101373.22;5023355;28;20517;-58
2023/05/18 05:13:47;;;;;;;21.40;8.40;;;;;;;11.90;66.59;101375.88;5026136;28;20139;-47
2023/05/18 05:16:13;;;;;;;28.83;8.13;;;;;;;11.92;67.53;101379.38;5025756;28;20505;-53
2023/05/18 05:18:40;;;;;;;21.98;8.23;;;;;;;11.94;67.41;101377.66;5027871;28;20128;-51
2023/05/18 05:21:08;;;;;;;22.27;8.60;;;;;;;11.97;66.71;101377.72;5026641;28;20065;-50
2023/05/18 05:23:35;;;;;;;20.25;7.93;;;;;;;12.00;67.78;101372.56;5023737;28;20460;-53
2023/05/18 05:26:02;;;;;;;22.80;8.05;;;;;;;12.03;67.01;101377.78;5015576;28;20050;-54
2023/05/18 05:28:28;;;;;;;23.35;8.05;;;;;;;12.06;67.08;101383.03;5042021;28;20049;-56
2023/05/18 05:30:55;;;;;;;24.67;8.23;;;;;;;12.11;67.18;101374.44;5046309;28;20052;-55
2023/05/18 05:33:21;;;;;;;20.23;8.65;;;;;;;12.12;67.40;101374.47;5039540;28;20098;-50
2023/05/18 05:35:48;;;;;;;24.55;8.40;;;;;;;12.17;67.81;101379.72;5034039;28;20052;-51
2023/05/18 05:38:16;;;;;;;23.95;7.57;;;;;;;12.18;66.79;101384.06;5048560;28;20053;-56
2023/05/18 05:40:43;;;;;;;21.77;7.95;;;;;;;12.23;67.79;101378.94;5048475;28;20049;-50
2023/05/18 05:43:09;;;;;;;26.58;7.70;;;;;;;12.26;67.09;101382.41;5042408;28;20051;-57
2023/05/18 05:45:36;;;;;;;21.02;8.88;;;;;;;12.30;68.14;101381.59;5043003;28;20451;-53
2023/05/18 05:48:03;;;;;;;22.70;8.57;;;;;;;12.38;67.51;101393.81;5043565;28;20405;-54
2023/05/18 05:50:31;;;;;;;21.35;8.20;;;;;;;12.40;67.90;101386.91;5042719;28;20065;-56
2023/05/18 05:52:58;;;;;;;19.88;8.45;;;;;;;12.44;67.99;101388.69;5027845;28;20045;-52
2023/05/18 05:55:25;;;;;;;18.35;8.15;;;;;;;12.50;67.72;101388.75;5050798;28;20051;-51
2023/05/18 05:57:52;;;;;;;19.02;8.02;;;;;;;12.57;66.86;101387.94;5051212;28;20049;-55
2023/05/18 06:00:19;;;;;;;20.52;8.85;;;;;;;12.62;67.59;101381.94;5046593;28;20075;-53
2023/05/18 06:02:46;;;;;;;21.60;9.00;;;;;;;12.68;67.50;101387.19;5043501;28;20087;-56
2023/05/18 06:05:13;;;;;;;24.02;9.35;;;;;;;12.75;67.11;101391.59;5025821;28;23158;-53
2023/05/18 06:07:40;;;;;;;19.48;7.97;;;;;;;12.82;66.77;101393.41;5042204;28;20567;-52
2023/05/18 06:10:07;;;;;;;24.48;8.38;;;;;;;12.91;68.13;101392.63;5040487;28;20063;-50
2023/05/18 06:12:34;;;;;;;22.67;7.72;;;;;;;12.98;67.50;101393.56;5044390;28;20044;-57
2023/05/18 06:15:01;;;;;;;22.10;7.80;;;;;;;13.05;66.70;101387.56;5036685;28;20100;-51
2023/05/18 06:17:29;;;;;;;21.17;7.55;;;;;;;13.11;67.65;101387.59;5041862;28;20044;-50
2023/05/18 06:19:56;;;;;;;23.10;8.20;;;;;;;13.21;67.91;101387.69;5045056;28;20049;-54
2023/05/18 06:22:23;;;;;;;22.63;7.97;;;;;;;13.27;67.19;101386.84;5049879;28;20050;-55
2023/05/18 06:24:50;;;;;;;19.52;7.55;;;;;;;13.34;67.86;101388.66;5041931;28;20934;-55
2023/05/18 06:27:18;;;;;;;20.50;8.65;;;;;;;13.39;67.71;101383.44;5023041;28;20076;-48
2023/05/18 06:29:44;;;;;;;22.05;8.35;;;;;;;13.45;67.62;101391.31;5045953;28;20049;-53
2023/05/18 06:32:12;;;;;;;23.30;7.93;;;;;;;13.53;67.57;101392.28;5046863;28;20050;-53
2023/05/18 06:34:39;;;;;;;22.13;8.02;;;;;;;13.60;67.29;101390.56;5048501;28;20048;-55
2023/05/18 06:37:06;;;;;;;23.25;7.85;;;;;;;13.66;67.66;101390.63;5029085;28;20045;-58
2023/05/18 06:39:32;;;;;;;18.30;6.85;;;;;;;13.74;67.89;101390.66;5034885;28;20067;-52
2023/05/18 06:41:59;;;;;;;25.90;8.18;;;;;;;13.80;67.33;101382.88;5033076;28;20052;-50
2023/05/18 06:44:26;;;;;;;19.90;8.63;;;;;;;13.90;68.10;101380.31;5043252;28;20048;-54
2023/05/18 06:46:53;;;;;;;16.33;7.28;;;;;;;14.01;67.26;101386.44;5040555;28;20119;-53
2023/05/18 06:49:20;;;;;;;21.98;7.57;;;;;;;14.10;67.42;101376.06;5041484;28;20496;-52
2023/05/18 06:51:46;;;;;;;23.40;7.97;;;;;;;14.22;67.82;101377.00;5042781;28;20512;-58
2023/05/18 06:54:13;;;;;;;22.08;9.93;;;;;;;14.30;66.92;101377.88;5042653;28;20412;-55
2023/05/18 06:56:40;;;;;;;22.20;8.52;;;;;;;14.40;67.43;101374.41;5044160;28;20060;-54
2023/05/18 06:59:07;;;;;;;20.73;8.07;;;;;;;14.52;67.08;101377.91;5038959;28;20060;-58
2023/05/18 07:01:33;;;;;;;27.13;9.55;;;;;;;14.62;67.01;101384.91;5040313;28;20046;-55
2023/05/18 07:04:01;;;;;;;21.35;7.90;;;;;;;14.73;66.60;101376.22;5038692;28;20045;-53
2023/05/18 07:06:28;;;;;;;19.27;7.53;;;;;;;14.84;66.79;101384.97;5036634;28;20091;-58
2023/05/18 07:08:55;;;;;;;20.27;7.03;;;;;;;14.94;66.71;101390.19;5043739;28;20058;-55
2023/05/18 07:11:22;;;;;;;18.10;7.15;;;;;;;15.02;66.14;101388.44;5042990;28;20055;-55
2023/05/18 07:13:49;;;;;;;17.75;7.38;;;;;;;15.11;66.01;101392.81;5041219;28;20416;-53
2023/05/18 07:16:16;;;;;;;18.25;7.13;;;;;;;15.20;65.98;101387.56;5043702;28;20043;-54
2023/05/18 07:18:43;;;;;;;19.40;7.82;;;;;;;15.29;65.86;101398.03;5042190;28;20045;-53
2023/05/18 07:21:10;;;;;;;18.30;8.25;;;;;;;15.38;65.71;101391.94;5044416;28;20041;-54
2023/05/18 07:23:37;;;;;;;23.05;8.23;;;;;;;15.47;66.00;101395.41;5039577;28;20049;-54
2023/05/18 07:26:09;;;;;;;16.48;6.95;;;;;;;15.59;65.40;101394.47;5036682;28;20076;-53
2023/05/18 07:28:37;;;;;;;18.58;8.43;;;;;;;15.72;66.13;101396.22;5042776;28;20133;-52
2023/05/18 07:31:05;;;;;;;19.50;7.43;;;;;;;15.87;65.43;101400.50;5042281;28;20045;-57
2023/05/18 07:33:32;;;;;;;16.45;7.25;;;;;;;16.00;65.26;101395.28;5036898;28;20123;-53
2023/05/18 07:35:59;;;;;;;14.88;7.32;;;;;;;16.12;65.30;101395.25;5037469;28;20049;-57
2023/05/18 07:38:26;;;;;;;17.95;7.25;;;;;;;16.28;65.32;101396.03;5041571;28;20118;-53
2023/05/18 07:40:53;;;;;;;17.67;7.78;;;;;;;16.43;64.78;101400.31;5046340;28;20048;-52
2023/05/18 07:43:19;;;;;;;21.95;8.80;;;;;;;16.64;64.76;101393.22;5045499;28;20151;-52
2023/05/18 07:45:46;;;;;;;19.58;7.40;;;;;;;16.83;63.65;101393.09;5051812;28;20756;-54
2023/05/18 07:48:14;;;;;;;16.98;6.70;;;;;;;17.03;64.48;101400.78;5043161;28;20052;-55
2023/05/18 07:50:42;;;;;;;16.63;7.05;;;;;;;17.31;64.21;101394.47;5055908;28;20056;-50
2023/05/18 07:53:08;;;;;;;16.55;7.10;;;;;;;17.59;63.53;101400.31;5033597;28;20045;-50
2023/05/18 07:55:36;;;;;;;15.02;5.68;;;;;;;17.95;62.76;101394.66;5052465;28;20052;-51
2023/05/18 07:58:03;;;;;;;18.35;6.47;;;;;;;18.23;62.74;101396.97;5046412;28;20080;-55
2023/05/18 08:00:33;;;;;;;16.02;6.68;;;;;;;18.49;62.23;101393.13;5044537;28;20114;-58
2023/05/18 08:03:00;;;;;;;13.68;5.40;;;;;;;18.70;61.64;101385.81;5053225;28;20132;-52
2023/05/18 08:05:27;;;;;;;14.90;6.45;;;;;;;18.83;60.36;101390.88;5046613;28;20049;-49
2023/05/18 08:07:55;;;;;;;17.08;7.97;;;;;;;18.91;60.45;101383.72;5046200;28;20067;-53
2023/05/18 08:10:22;;;;;;;14.18;6.28;;;;;;;18.97;59.33;101386.28;5044603;28;20053;-54
2023/05/18 08:12:48;;;;;;;17.35;7.15;;;;;;;19.02;58.82;101380.94;5041355;28;20045;-52
2023/05/18 08:15:15;;;;;;;11.60;5.78;;;;;;;19.11;59.55;101385.19;5045484;28;20045;-56
2023/05/18 08:17:42;;;;;;;12.00;5.45;;;;;;;19.19;59.03;101388.56;5048288;28;20056;-56
2023/05/18 08:20:10;;;;;;;13.52;5.97;;;;;;;19.25;58.46;101383.19;5043645;28;20040;-58
2023/05/18 08:22:36;;;;;;;14.77;6.90;;;;;;;19.31;58.55;101391.84;5043017;28;20136;-52
2023/05/18 08:25:04;;;;;;;14.25;5.82;;;;;;;19.35;58.28;101394.41;5042534;28;20048;-54
2023/05/18 08:27:32;;;;;;;14.32;6.03;;;;;;;19.41;57.79;101393.41;5027066;28;20757;-55
2023/05/18 08:29:58;;;;;;;15.90;5.82;;;;;;;19.49;58.25;101391.50;5044750;28;20463;-54
2023/05/18 08:32:25;;;;;;;10.75;5.10;;;;;;;19.74;57.95;101391.06;5042002;28;20049;-55
2023/05/18 08:34:53;;;;;;;9.50;4.75;;;;;;;20.03;58.04;101392.25;5046714;28;20049;-57
2023/05/18 08:37:20;;;;;;;11.73;4.72;;;;;;;20.40;57.26;101389.72;5040908;28;20061;-55
2023/05/18 08:39:47;;;;;;;11.77;4.60;;;;;;;20.77;56.05;101394.13;5040361;28;20048;-54
2023/05/18 08:42:20;;;;;;;71.90;25.65;;;;;;;21.03;55.10;101390.00;5042913;28;20667;-58
2023/05/18 08:45:06;;;;;;;15.18;6.85;;;;;;;21.28;55.11;101389.38;5042518;28;20099;-54
2023/05/18 08:47:36;;;;;;;9.18;4.15;;;;;;;21.52;53.72;101386.97;5039713;28;20048;-53
2023/05/18 08:50:04;;;;;;;9.75;4.25;;;;;;;21.73;53.17;101389.94;5044536;28;20154;-50
2023/05/18 08:52:35;;;;;;;7.85;3.63;;;;;;;21.96;52.28;101385.81;5048125;28;20037;-54
2023/05/18 08:55:06;;;;;;;10.75;3.75;;;;;;;22.20;51.68;101393.91;5044194;28;20060;-57
2023/05/18 08:57:37;;;;;;;8.27;3.80;;;;;;;22.45;51.07;101398.41;5045528;28;20085;-59
2023/05/18 09:00:06;;;;;;;9.82;3.28;;;;;;;22.62;51.21;101394.44;5027674;28;20527;-57
2023/05/18 09:02:33;;;;;;;17.55;6.72;;;;;;;22.79;49.97;101391.19;5043399;28;20060;-54
2023/05/18 09:05:01;;;;;;;11.90;5.03;;;;;;;23.07;49.88;101392.94;5052888;28;20064;-57
2023/05/18 09:07:28;;;;;;;7.47;3.50;;;;;;;23.19;48.47;101394.28;5028544;28;20045;-52
2023/05/18 09:09:57;;;;;;;7.55;3.35;;;;;;;23.36;48.86;101397.25;5046484;28;20053;-60
2023/05/18 09:12:27;;;;;;;10.13;3.10;;;;;;;23.59;47.70;101397.34;5045847;28;20044;-55
2023/05/18 09:14:54;;;;;;;7.13;3.63;;;;;;;23.75;46.92;101392.38;5037820;28;21767;-59
2023/05/18 09:17:22;;;;;;;8.27;2.80;;;;;;;23.92;46.18;101393.50;5038500;28;20048;-53
2023/05/18 09:19:49;;;;;;;8.48;3.58;;;;;;;24.06;46.20;101391.22;5046456;28;20044;-54
2023/05/18 09:22:16;;;;;;;12.07;4.90;;;;;;;24.24;46.80;101399.38;5044163;28;20049;-50
2023/05/18 09:24:43;;;;;;;9.52;3.95;;;;;;;24.46;46.27;101393.25;5047617;28;20183;-57
2023/05/18 09:27:10;;;;;;;9.05;3.83;;;;;;;24.60;45.56;101390.91;5048436;28;20051;-55
2023/05/18 09:29:53;;;;;;;7.65;3.25;;;;;;;24.75;45.17;101388.53;5039357;28;20045;-50
2023/05/18 09:32:21;;;;;;;6.07;3.42;;;;;;;24.90;44.24;101387.91;5040707;28;20124;-54
2023/05/18 09:34:49;;;;;;;8.75;3.17;;;;;;;25.04;44.04;101383.84;5049368;28;20049;-52
2023/05/18 09:37:17;;;;;;;13.55;4.88;;;;;;;25.29;44.18;101380.13;5044234;28;20068;-54
2023/05/18 09:39:56;;;;;;;8.65;3.50;;;;;;;25.50;43.27;101380.09;5043615;28;20189;-57
2023/05/18 09:42:41;;;;;;;6.97;2.90;;;;;;;25.53;41.19;101386.13;5049729;28;20037;-56
2023/05/18 09:48:06;;;;;;;8.55;3.75;;;;;;;25.57;41.49;101376.25;5062272;27;20938;-55
2023/05/18 09:50:36;;;;;;;9.75;3.70;;;;;;;25.62;40.46;101370.75;5019044;28;20045;-56
2023/05/18 09:53:08;;;;;;;7.70;3.60;;;;;;;25.68;41.46;101373.13;5025533;28;20058;-57
2023/05/18 09:55:38;;;;;;;9.30;4.07;;;;;;;25.84;41.20;101373.31;5021253;28;20053;-55
2023/05/18 09:58:06;;;;;;;7.20;3.58;;;;;;;25.97;40.65;101372.72;5020327;28;20324;-51
2023/05/18 10:00:39;;;;;;;4.75;3.67;;;;;;;25.96;39.27;101365.66;5024951;28;20140;-57
2023/05/18 10:03:16;;;;;;;5.22;2.58;;;;;;;25.93;38.91;101367.56;5026641;28;20516;-54
2023/05/18 10:05:43;;;;;;;6.15;2.70;;;;;;;25.89;38.81;101365.97;5017653;28;20460;-53
2023/05/18 10:08:13;;;;;;;7.68;3.03;;;;;;;25.87;38.56;101367.81;5020790;28;20048;-55
2023/05/18 10:10:43;;;;;;;7.28;3.45;;;;;;;25.95;38.82;101363.97;5025360;28;20049;-51
2023/05/18 10:13:13;;;;;;;9.10;4.15;;;;;;;26.11;39.28;101364.94;5020635;28;20052;-55
2023/05/18 10:15:58;;;;;;;9.02;4.28;;;;;;;26.31;38.79;101360.53;5022320;28;20045;-56
2023/05/18 10:18:27;;;;;;;8.30;3.83;;;;;;;26.37;38.91;101360.22;5020666;28;20056;-50
2023/05/18 10:20:57;;;;;;;6.72;3.50;;;;;;;26.44;39.32;101356.31;5038422;28;20053;-53
2023/05/18 10:23:30;;;;;;;8.48;4.15;;;;;;;26.54;40.09;101366.47;5049860;28;20160;-53
2023/05/18 10:25:58;;;;;;;9.50;5.38;;;;;;;26.65;38.62;101363.31;5034980;28;20048;-54
2023/05/18 10:28:30;;;;;;;10.00;4.13;;;;;;;26.55;38.08;101357.59;5036879;28;20053;-53
2023/05/18 10:30:58;;;;;;;8.82;4.05;;;;;;;26.66;38.00;101359.72;5033772;28;20051;-53
2023/05/18 10:33:27;;;;;;;7.90;3.90;;;;;;;26.86;39.06;101361.38;5038821;28;20045;-53
2023/05/18 10:35:56;;;;;;;7.50;3.53;;;;;;;26.98;37.31;101354.56;5035501;28;20104;-55
2023/05/18 10:41:00;;;;;;;8.30;4.28;;;;;;;27.00;37.33;101359.81;5056533;28;20405;-53
2023/05/18 10:43:27;;;;;;;7.57;4.50;;;;;;;27.05;36.76;101355.13;5015075;28;20045;-56
2023/05/18 10:45:57;;;;;;;9.82;4.53;;;;;;;27.13;37.20;101352.94;5021258;28;20061;-53
2023/05/18 10:48:25;;;;;;;8.30;4.22;;;;;;;27.29;37.42;101354.78;5020638;28;20049;-55
2023/05/18 10:50:55;;;;;;;9.35;4.25;;;;;;;27.35;36.87;101362.41;5032131;28;20049;-54
2023/05/18 10:53:25;;;;;;;10.02;4.45;;;;;;;27.31;36.46;101359.09;5025134;28;20052;-55
2023/05/18 10:55:53;;;;;;;8.82;3.67;;;;;;;27.12;36.65;101356.50;5025329;28;20076;-55
2023/05/18 10:58:24;;;;;;;7.32;3.60;;;;;;;26.92;35.86;101366.34;5016488;28;20084;-52
2023/05/18 11:00:57;;;;;;;6.72;3.10;;;;;;;26.67;35.73;101356.97;5031894;28;20112;-50
2023/05/18 11:03:25;;;;;;;6.80;2.70;;;;;;;26.56;36.20;101359.31;5017394;28;20120;-56
2023/05/18 11:06:13;;;;;;;5.55;4.00;;;;;;;26.41;35.79;101367.09;5023789;28;20432;-55
2023/05/18 11:08:43;;;;;;;8.20;3.42;;;;;;;26.29;35.77;101362.38;5019939;28;20052;-56
2023/05/18 11:11:10;;;;;;;8.13;3.75;;;;;;;26.23;35.72;101357.31;5022376;28;20048;-51
2023/05/18 11:13:42;;;;;;;5.90;3.70;;;;;;;26.25;36.83;101360.78;5019425;28;20049;-55
2023/05/18 11:16:09;;;;;;;7.25;3.60;;;;;;;26.41;36.72;101356.47;5027829;28;20046;-53
2023/05/18 11:24:24;;;;;;;6.95;4.68;;;;;;;26.73;36.00;101361.13;5051003;28;20392;-51
2023/05/18 11:26:54;;;;;;;9.55;5.07;;;;;;;26.71;36.00;101364.81;5026054;28;20042;-51
2023/05/18 11:29:23;;;;;;;7.38;4.97;;;;;;;26.60;35.43;101363.53;5019013;28;20061;-51
2023/05/18 11:31:54;;;;;;;8.65;6.10;;;;;;;26.48;35.40;101356.19;5031436;28;20055;-54
2023/05/18 11:34:43;;;;;;;6.40;4.68;;;;;;;26.35;36.19;101362.09;5039692;28;20045;-54
2023/05/18 11:37:14;;;;;;;7.60;4.93;;;;;;;26.37;35.36;101360.22;5037036;28;20497;-52
2023/05/18 11:39:41;;;;;;;7.90;5.07;;;;;;;26.41;36.27;101361.78;5038347;28;20068;-56
2023/05/18 11:42:32;;;;;;;11.80;6.43;;;;;;;26.47;35.87;101359.78;5037108;28;20052;-56
2023/05/18 11:47:42;;;;;;;8.77;4.00;;;;;;;26.43;36.43;101354.63;5038065;28;20430;-56
2023/05/18 11:50:11;;;;;;;49.45;35.83;;;;;;;26.56;36.70;101354.00;5000273;28;20505;-55
2023/05/18 11:52:46;;;;;;;113.95;84.45;;;;;;;26.73;35.89;101352.28;5000194;28;20104;-54
2023/05/18 11:55:15;;;;;;;8.50;4.97;;;;;;;26.78;35.31;101348.44;4995257;28;20085;-54
2023/05/18 11:57:44;;;;;;;13.05;4.65;;;;;;;26.72;35.65;101348.78;4994685;28;20046;-57